createdAt,value
2024-01-11T00:00:48.351Z,8.75
2024-01-11T00:03:16.384Z,8.38
2024-01-11T00:05:43.858Z,8.50
2024-01-11T00:08:12.331Z,9.07
2024-01-11T00:10:39.168Z,8.75
2024-01-11T00:13:05.996Z,7.95
2024-01-11T00:15:32.850Z,8.85
2024-01-11T00:17:59.886Z,7.57
2024-01-11T00:20:26.954Z,8.07
2024-01-11T00:22:53.869Z,8.85
2024-01-11T00:25:20.749Z,8.30
2024-01-11T00:27:47.577Z,9.10
2024-01-11T00:30:14.706Z,8.70
2024-01-11T00:32:41.725Z,8.93
2024-01-11T00:35:08.790Z,8.68
2024-01-11T00:37:35.669Z,8.70
2024-01-11T00:40:02.759Z,8.38
2024-01-11T00:42:29.587Z,8.95
2024-01-11T00:44:56.490Z,8.77
2024-01-11T00:47:23.449Z,8.50
2024-01-11T00:49:50.336Z,8.68
2024-01-11T00:52:17.270Z,8.40
2024-01-11T00:54:44.207Z,8.65
2024-01-11T00:57:11.037Z,8.50
2024-01-11T00:59:37.922Z,9.00
2024-01-11T01:02:04.825Z,7.93
2024-01-11T01:04:31.656Z,7.93
2024-01-11T01:06:58.563Z,8.02
2024-01-11T01:09:25.513Z,7.80
2024-01-11T01:11:52.586Z,8.45
2024-01-11T01:14:19.485Z,7.93
2024-01-11T01:16:46.491Z,8.07
2024-01-11T01:19:13.605Z,8.75
2024-01-11T01:21:40.638Z,7.82
2024-01-11T01:24:07.618Z,7.85
2024-01-11T01:26:34.669Z,7.90
2024-01-11T01:29:02.422Z,8.65
2024-01-11T01:31:29.683Z,7.90
2024-01-11T01:33:56.751Z,8.15
2024-01-11T01:36:23.753Z,8.30
2024-01-11T01:38:50.699Z,8.10
2024-01-11T01:41:17.663Z,7.82
2024-01-11T01:43:44.569Z,8.27
2024-01-11T01:46:11.574Z,8.10
2024-01-11T01:48:39.061Z,7.80
2024-01-11T01:51:06.868Z,8.02
2024-01-11T01:53:33.975Z,7.75
2024-01-11T01:56:01.019Z,7.72
2024-01-11T01:58:28.283Z,7.60
2024-01-11T02:00:55.335Z,7.50
2024-01-11T02:03:22.624Z,7.78
2024-01-11T02:05:50.093Z,8.10
2024-01-11T02:10:48.023Z,8.18
2024-01-11T02:13:15.145Z,7.47
2024-01-11T02:15:42.235Z,8.57
2024-01-11T02:18:09.327Z,7.53
2024-01-11T02:20:36.380Z,7.75
2024-01-11T02:23:07.596Z,7.63
2024-01-11T02:25:34.603Z,7.50
2024-01-11T02:28:01.521Z,8.38
2024-01-11T02:30:28.615Z,7.50
2024-01-11T02:32:57.009Z,7.68
2024-01-11T02:35:24.639Z,7.85
2024-01-11T02:37:51.898Z,7.05
2024-01-11T02:40:20.371Z,7.50
2024-01-11T02:42:47.549Z,7.97
2024-01-11T02:45:14.568Z,7.95
2024-01-11T02:47:41.736Z,8.40
2024-01-11T02:50:09.320Z,7.85
2024-01-11T02:52:36.656Z,8.07
2024-01-11T02:55:03.627Z,8.23
2024-01-11T02:57:30.495Z,7.55
2024-01-11T02:59:57.319Z,8.30
2024-01-11T03:02:24.408Z,8.13
2024-01-11T03:04:51.480Z,7.63
2024-01-11T03:07:18.409Z,8.13
2024-01-11T03:09:45.366Z,7.43
2024-01-11T03:12:12.348Z,7.60
2024-01-11T03:14:39.453Z,7.68
2024-01-11T03:17:06.959Z,8.65
2024-01-11T03:19:33.972Z,6.95
2024-01-11T03:22:04.295Z,7.53
2024-01-11T03:24:31.255Z,7.78
2024-01-11T03:26:58.210Z,7.70
2024-01-11T03:29:25.439Z,7.60
2024-01-11T03:31:52.476Z,7.45
2024-01-11T03:34:19.518Z,7.60
2024-01-11T03:36:46.534Z,7.60
2024-01-11T03:39:13.515Z,7.70
2024-01-11T03:41:45.709Z,7.53
2024-01-11T03:44:13.561Z,7.85
2024-01-11T03:46:40.520Z,6.93
2024-01-11T03:49:08.866Z,8.27
2024-01-11T03:51:36.741Z,7.65
2024-01-11T03:54:03.778Z,7.70
2024-01-11T03:56:31.439Z,7.50
2024-01-11T03:58:58.578Z,7.82
2024-01-11T04:01:25.549Z,7.47
2024-01-11T04:03:52.523Z,7.57
2024-01-11T04:06:25.871Z,8.18
2024-01-11T04:08:53.045Z,7.32
2024-01-11T04:11:19.995Z,7.40
2024-01-11T04:13:47.013Z,7.95
2024-01-11T04:16:13.865Z,7.78
2024-01-11T04:18:40.804Z,7.63
2024-01-11T04:21:07.731Z,7.63
2024-01-11T04:23:34.763Z,7.90
2024-01-11T04:26:01.673Z,7.25
2024-01-11T04:28:29.204Z,8.10
2024-01-11T04:30:56.158Z,7.45
2024-01-11T04:33:23.158Z,7.50
2024-01-11T04:35:50.072Z,7.63
2024-01-11T04:38:17.060Z,7.45
2024-01-11T04:40:43.965Z,7.40
2024-01-11T04:43:11.491Z,7.53
2024-01-11T04:45:38.543Z,7.22
2024-01-11T04:48:06.087Z,7.43
2024-01-11T04:50:33.084Z,7.60
2024-01-11T04:53:00.094Z,7.03
2024-01-11T04:55:26.961Z,6.88
2024-01-11T04:57:53.852Z,6.47
2024-01-11T05:00:20.827Z,7.20
2024-01-11T05:02:47.985Z,7.13
2024-01-11T05:05:15.176Z,7.75
2024-01-11T05:07:42.120Z,7.00
2024-01-11T05:10:09.370Z,7.50
2024-01-11T05:12:37.901Z,7.22
2024-01-11T05:15:07.281Z,7.13
2024-01-11T05:17:34.354Z,7.15
2024-01-11T05:20:01.465Z,7.53
2024-01-11T05:22:28.465Z,7.53
2024-01-11T05:24:55.431Z,7.90
2024-01-11T05:27:22.480Z,7.75
2024-01-11T05:29:49.515Z,7.47
2024-01-11T05:32:16.617Z,7.55
2024-01-11T05:34:43.738Z,7.85
2024-01-11T05:37:10.735Z,7.32
2024-01-11T05:39:37.644Z,7.38
2024-01-11T05:42:04.799Z,7.43
2024-01-11T05:44:31.757Z,8.55
2024-01-11T05:46:58.685Z,7.70
2024-01-11T05:49:25.695Z,7.60
2024-01-11T05:51:52.625Z,7.05
2024-01-11T05:54:19.579Z,7.47
2024-01-11T05:56:46.563Z,7.38
2024-01-11T05:59:13.537Z,7.93
2024-01-11T06:01:44.092Z,7.75
2024-01-11T06:04:11.146Z,7.43
2024-01-11T06:06:38.136Z,8.32
2024-01-11T06:09:08.667Z,7.85
2024-01-11T06:11:35.702Z,8.07
2024-01-11T06:14:03.886Z,7.30
2024-01-11T06:16:30.995Z,7.30
2024-01-11T06:18:58.514Z,7.70
2024-01-11T06:21:25.473Z,7.05
2024-01-11T06:23:52.831Z,7.28
2024-01-11T06:26:19.903Z,7.38
2024-01-11T06:28:46.901Z,7.65
2024-01-11T06:31:14.109Z,7.47
2024-01-11T06:33:41.077Z,7.22
2024-01-11T06:36:10.866Z,7.88
2024-01-11T06:41:04.948Z,7.07
2024-01-11T06:43:31.868Z,7.78
2024-01-11T06:46:04.422Z,7.18
2024-01-11T06:48:32.233Z,7.18
2024-01-11T06:51:01.807Z,7.35
2024-01-11T06:53:29.275Z,7.15
2024-01-11T06:55:56.407Z,8.15
2024-01-11T06:58:23.433Z,8.20
2024-01-11T07:00:50.994Z,8.85
2024-01-11T07:03:18.802Z,8.40
2024-01-11T07:05:46.018Z,8.35
2024-01-11T07:08:13.144Z,9.00
2024-01-11T07:10:40.032Z,8.13
2024-01-11T07:13:07.887Z,8.77
2024-01-11T07:15:34.819Z,9.35
2024-01-11T07:18:01.992Z,8.85
2024-01-11T07:20:29.275Z,8.68
2024-01-11T07:22:56.174Z,8.90
2024-01-11T07:25:23.021Z,8.23
2024-01-11T07:27:49.849Z,7.63
2024-01-11T07:30:16.859Z,8.27
2024-01-11T07:32:44.145Z,9.25
2024-01-11T07:35:14.328Z,8.45
2024-01-11T07:37:43.568Z,8.40
2024-01-11T07:40:14.760Z,8.43
2024-01-11T07:42:43.058Z,8.18
2024-01-11T07:45:14.731Z,8.52
2024-01-11T07:47:44.745Z,7.72
2024-01-11T07:50:12.005Z,8.95
2024-01-11T07:52:40.188Z,7.93
2024-01-11T07:55:08.631Z,8.20
2024-01-11T07:57:35.832Z,7.70
2024-01-11T08:00:04.586Z,8.43
2024-01-11T08:02:31.577Z,8.18
2024-01-11T08:05:00.880Z,8.07
2024-01-11T08:07:31.408Z,8.57
2024-01-11T08:09:58.661Z,7.70
2024-01-11T08:12:26.028Z,7.90
2024-01-11T08:14:52.947Z,8.73
2024-01-11T08:17:20.752Z,9.00
2024-01-11T08:19:47.696Z,8.32
2024-01-11T08:22:14.840Z,7.13
2024-01-11T08:24:42.557Z,8.38
2024-01-11T08:27:09.471Z,8.10
2024-01-11T08:29:36.362Z,8.15
2024-01-11T08:32:15.218Z,8.15
2024-01-11T08:34:51.253Z,8.48
2024-01-11T08:37:18.246Z,8.27
2024-01-11T08:39:47.365Z,7.28
2024-01-11T08:42:16.351Z,7.80
2024-01-11T08:44:44.050Z,8.93
2024-01-11T08:47:11.478Z,7.75
2024-01-11T08:49:40.304Z,8.18
2024-01-11T08:52:08.376Z,8.13
2024-01-11T08:54:35.788Z,8.02
2024-01-11T08:57:02.771Z,8.20
2024-01-11T08:59:29.692Z,8.77
2024-01-11T09:02:06.300Z,8.65
2024-01-11T09:04:40.859Z,8.63
2024-01-11T09:07:07.829Z,8.13
2024-01-11T09:09:40.943Z,8.27
2024-01-11T09:12:11.484Z,8.30
2024-01-11T09:14:38.557Z,9.05
2024-01-11T09:17:07.390Z,8.00
2024-01-11T09:19:39.105Z,8.63
2024-01-11T09:22:06.212Z,8.68
2024-01-11T09:24:37.003Z,8.73
2024-01-11T09:27:05.494Z,8.70
2024-01-11T09:29:32.488Z,9.20
2024-01-11T09:32:01.228Z,9.38
2024-01-11T09:34:28.649Z,9.27
2024-01-11T09:36:59.879Z,10.63
2024-01-11T09:39:27.118Z,9.00
2024-01-11T09:42:19.204Z,9.52
2024-01-11T09:44:46.188Z,9.35
2024-01-11T09:47:16.011Z,10.57
2024-01-11T09:49:45.962Z,8.98
2024-01-11T09:52:16.076Z,8.65
2024-01-11T09:54:43.439Z,9.40
2024-01-11T09:57:10.909Z,8.73
2024-01-11T09:59:38.422Z,8.82
2024-01-11T10:02:09.417Z,8.57
2024-01-11T10:04:38.332Z,8.82
2024-01-11T10:07:10.516Z,7.97
2024-01-11T10:09:37.764Z,8.55
2024-01-11T10:12:05.082Z,8.20
2024-01-11T10:14:33.029Z,8.73
2024-01-11T10:17:00.047Z,8.20
2024-01-11T10:19:27.255Z,8.57
2024-01-11T10:21:54.553Z,7.97
2024-01-11T10:24:22.978Z,8.13
2024-01-11T10:26:49.947Z,8.10
2024-01-11T10:29:19.204Z,7.53
2024-01-11T10:31:46.719Z,9.10
2024-01-11T10:34:13.659Z,8.60
2024-01-11T10:36:41.993Z,8.00
2024-01-11T10:39:10.314Z,9.25
2024-01-11T10:41:49.748Z,8.88
2024-01-11T10:44:21.544Z,8.52
2024-01-11T10:46:50.872Z,8.10
2024-01-11T10:49:21.239Z,8.23
2024-01-11T10:51:56.331Z,7.90
2024-01-11T10:54:24.129Z,7.85
2024-01-11T10:56:51.409Z,8.38
2024-01-11T10:59:20.005Z,12.18
2024-01-11T11:01:47.606Z,8.48
2024-01-11T11:04:15.585Z,8.95
2024-01-11T11:06:43.394Z,9.52
2024-01-11T11:09:11.774Z,8.60
2024-01-11T11:11:40.794Z,8.50
2024-01-11T11:14:08.709Z,8.25
2024-01-11T11:16:35.854Z,8.20
2024-01-11T11:19:02.895Z,8.77
2024-01-11T11:21:30.028Z,8.80
2024-01-11T11:23:57.848Z,8.18
2024-01-11T11:26:27.511Z,8.82
2024-01-11T11:28:54.449Z,9.60
2024-01-11T11:31:38.172Z,8.43
2024-01-11T11:34:08.615Z,8.57
2024-01-11T11:36:36.316Z,8.82
2024-01-11T11:39:03.836Z,9.27
2024-01-11T11:41:34.034Z,8.57
2024-01-11T11:44:04.342Z,8.27
2024-01-11T11:46:32.505Z,9.13
2024-01-11T11:48:59.936Z,8.02
2024-01-11T11:51:29.204Z,8.80
2024-01-11T11:56:24.594Z,8.55
2024-01-11T11:58:54.527Z,8.50
2024-01-11T12:03:51.684Z,8.63
2024-01-11T12:06:21.790Z,8.93
2024-01-11T12:08:49.489Z,8.57
2024-01-11T12:11:19.958Z,8.57
2024-01-11T12:13:48.753Z,8.48
2024-01-11T12:16:15.745Z,8.67
2024-01-11T12:18:43.467Z,8.23
2024-01-11T12:21:10.638Z,8.32
2024-01-11T12:23:39.971Z,8.68
2024-01-11T12:26:14.899Z,8.50
2024-01-11T12:28:43.803Z,8.27
2024-01-11T12:31:11.215Z,8.93
2024-01-11T12:33:39.910Z,8.30
2024-01-11T12:36:09.597Z,8.52
2024-01-11T12:38:37.167Z,7.72
2024-01-11T12:41:05.416Z,8.13
2024-01-11T12:43:32.853Z,8.48
2024-01-11T12:45:59.853Z,9.20
2024-01-11T12:48:27.182Z,7.18
2024-01-11T12:51:09.910Z,8.00
2024-01-11T12:53:41.999Z,7.65
2024-01-11T12:56:11.876Z,8.45
2024-01-11T12:58:39.789Z,8.20
2024-01-11T13:01:09.236Z,8.18
2024-01-11T13:03:39.534Z,8.50
2024-01-11T13:06:06.839Z,8.00
2024-01-11T13:08:35.821Z,8.43
2024-01-11T13:11:07.444Z,7.80
2024-01-11T13:13:35.788Z,7.88
2024-01-11T13:16:12.344Z,8.10
2024-01-11T13:18:39.337Z,8.73
2024-01-11T13:21:07.843Z,7.70
2024-01-11T13:23:35.062Z,7.50
2024-01-11T13:26:03.574Z,9.15
2024-01-11T13:28:30.688Z,8.00
2024-01-11T13:30:58.063Z,7.70
2024-01-11T13:33:25.222Z,7.43
2024-01-11T13:35:52.723Z,7.85
2024-01-11T13:38:21.665Z,7.55
2024-01-11T13:40:50.766Z,7.95
2024-01-11T13:43:18.351Z,7.53
2024-01-11T13:45:45.909Z,7.72
2024-01-11T13:48:13.115Z,7.10
2024-01-11T13:50:40.227Z,8.00
2024-01-11T13:53:07.531Z,7.03
2024-01-11T13:55:39.865Z,7.40
2024-01-11T13:58:07.759Z,7.65
2024-01-11T14:00:34.935Z,7.88
2024-01-11T14:03:02.608Z,7.47
2024-01-11T14:05:29.935Z,7.55
2024-01-11T14:08:00.671Z,8.05
2024-01-11T14:10:29.297Z,7.70
2024-01-11T14:12:56.311Z,6.82
2024-01-11T14:15:23.603Z,7.10
2024-01-11T14:17:51.178Z,7.03
2024-01-11T14:20:18.997Z,6.90
2024-01-11T14:22:52.966Z,7.05
2024-01-11T14:25:21.737Z,6.80
2024-01-11T14:27:49.954Z,6.50
2024-01-11T14:30:17.542Z,7.43
2024-01-11T14:32:45.076Z,6.28
2024-01-11T14:35:12.414Z,6.72
2024-01-11T14:40:11.754Z,7.07
2024-01-11T14:42:39.194Z,6.53
2024-01-11T14:45:07.444Z,7.22
2024-01-11T14:47:35.160Z,6.85
2024-01-11T14:50:04.838Z,6.57
2024-01-11T14:52:34.510Z,7.28
2024-01-11T14:57:28.296Z,6.05
2024-01-11T14:59:55.466Z,6.68
2024-01-11T15:02:22.677Z,7.50
2024-01-11T15:04:50.296Z,7.43
2024-01-11T15:07:17.212Z,7.25
2024-01-11T15:09:44.361Z,7.30
2024-01-11T15:12:11.264Z,6.93
2024-01-11T15:14:38.345Z,6.75
2024-01-11T15:17:05.609Z,6.65
2024-01-11T15:19:32.972Z,7.25
2024-01-11T15:22:00.577Z,6.90
2024-01-11T15:24:29.268Z,6.50
2024-01-11T15:26:56.411Z,6.95
2024-01-11T15:29:23.574Z,6.18
2024-01-11T15:31:51.500Z,7.95
2024-01-11T15:34:19.527Z,7.30
2024-01-11T15:36:46.726Z,6.75
2024-01-11T15:39:21.803Z,6.38
2024-01-11T15:41:58.566Z,6.60
2024-01-11T15:44:30.253Z,6.35
2024-01-11T15:46:58.188Z,6.22
2024-01-11T15:49:25.879Z,6.50
2024-01-11T15:51:53.038Z,6.57
2024-01-11T15:54:21.968Z,6.38
2024-01-11T15:56:49.541Z,6.80
2024-01-11T15:59:17.198Z,6.40
2024-01-11T16:01:51.733Z,6.40
2024-01-11T16:04:27.737Z,6.30
2024-01-11T16:06:55.206Z,6.10
2024-01-11T16:09:22.824Z,7.72
2024-01-11T16:11:50.943Z,6.47
2024-01-11T16:14:18.086Z,6.60
2024-01-11T16:16:45.214Z,7.07
2024-01-11T16:19:12.559Z,6.20
2024-01-11T16:21:40.348Z,6.18
2024-01-11T16:24:08.418Z,6.07
2024-01-11T16:26:36.173Z,6.30
2024-01-11T16:29:03.171Z,6.60
2024-01-11T16:31:30.385Z,7.03
2024-01-11T16:33:57.693Z,6.55
2024-01-11T16:36:25.248Z,6.03
2024-01-11T16:38:52.438Z,5.85
2024-01-11T16:41:20.171Z,5.60
2024-01-11T16:43:47.450Z,5.93
2024-01-11T16:46:22.875Z,6.85
2024-01-11T16:48:51.414Z,5.80
2024-01-11T16:51:18.800Z,6.00
2024-01-11T16:53:46.030Z,5.38
2024-01-11T16:56:13.221Z,5.55
2024-01-11T16:58:40.265Z,5.55
2024-01-11T17:01:07.532Z,5.45
2024-01-11T17:03:34.543Z,5.70
2024-01-11T17:06:01.579Z,5.90
2024-01-11T17:08:30.260Z,6.25
2024-01-11T17:10:57.161Z,5.22
2024-01-11T17:13:24.018Z,6.05
2024-01-11T17:15:50.962Z,5.40
2024-01-11T17:18:18.696Z,5.80
2024-01-11T17:20:45.643Z,6.10
2024-01-11T17:23:12.626Z,5.20
2024-01-11T17:25:39.520Z,5.70
2024-01-11T17:28:06.585Z,7.15
2024-01-11T17:30:33.559Z,6.30
2024-01-11T17:33:00.620Z,5.40
2024-01-11T17:35:27.664Z,5.63
2024-01-11T17:37:54.538Z,6.15
2024-01-11T17:40:21.459Z,6.10
2024-01-11T17:42:48.330Z,5.47
2024-01-11T17:45:15.238Z,5.70
2024-01-11T17:47:45.195Z,5.50
2024-01-11T17:50:12.306Z,6.18
2024-01-11T17:52:39.256Z,5.97
2024-01-11T17:55:06.609Z,5.40
2024-01-11T17:57:33.455Z,6.00
2024-01-11T18:00:00.395Z,5.78
2024-01-11T18:02:27.353Z,5.85
2024-01-11T18:04:54.278Z,6.82
2024-01-11T18:07:23.339Z,7.22
2024-01-11T18:09:53.889Z,6.80
2024-01-11T18:12:20.836Z,6.45
2024-01-11T18:14:47.971Z,5.47
2024-01-11T18:17:15.018Z,6.55
2024-01-11T18:19:42.295Z,5.50
2024-01-11T18:22:11.911Z,5.95
2024-01-11T18:24:38.743Z,6.45
2024-01-11T18:27:09.568Z,5.68
2024-01-11T18:29:36.534Z,5.53
2024-01-11T18:32:03.681Z,5.07
2024-01-11T18:34:32.572Z,5.35
2024-01-11T18:36:59.493Z,5.07
2024-01-11T18:39:26.415Z,5.43
2024-01-11T18:41:53.357Z,5.20
2024-01-11T18:44:21.514Z,5.20
2024-01-11T18:46:48.484Z,5.13
2024-01-11T18:49:15.501Z,4.32
2024-01-11T18:51:43.012Z,5.35
2024-01-11T18:54:10.346Z,5.20
2024-01-11T18:56:37.272Z,4.85
2024-01-11T18:59:04.598Z,5.45
2024-01-11T19:01:31.965Z,5.85
2024-01-11T19:03:59.102Z,6.85
2024-01-11T19:06:27.367Z,5.10
2024-01-11T19:08:54.535Z,5.40
2024-01-11T19:11:21.512Z,6.03
2024-01-11T19:13:48.405Z,6.03
2024-01-11T19:16:15.329Z,5.28
2024-01-11T19:18:42.488Z,5.47
2024-01-11T19:21:09.386Z,6.38
2024-01-11T19:23:37.553Z,5.30
2024-01-11T19:26:06.171Z,7.15
2024-01-11T19:28:33.085Z,4.93
2024-01-11T19:31:00.400Z,4.22
2024-01-11T19:33:29.094Z,5.65
2024-01-11T19:35:57.942Z,8.00
2024-01-11T19:38:25.244Z,13.23
2024-01-11T19:40:52.782Z,17.65
2024-01-11T19:43:19.677Z,20.60
2024-01-11T19:45:46.674Z,21.45
2024-01-11T19:48:13.834Z,21.52
2024-01-11T19:50:41.362Z,21.38
2024-01-11T19:53:09.782Z,21.77
2024-01-11T19:55:36.835Z,21.08
2024-01-11T19:58:03.933Z,19.83
2024-01-11T20:00:30.992Z,18.63
2024-01-11T20:05:26.334Z,18.70
2024-01-11T20:07:54.039Z,17.85
2024-01-11T20:10:21.005Z,15.65
2024-01-11T20:12:48.739Z,15.40
2024-01-11T20:15:15.788Z,16.52
2024-01-11T20:17:42.786Z,16.23
2024-01-11T20:20:10.104Z,15.13
2024-01-11T20:22:37.259Z,13.75
2024-01-11T20:25:04.369Z,14.98
2024-01-11T20:27:31.308Z,14.93
2024-01-11T20:29:58.749Z,14.80
2024-01-11T20:32:25.914Z,14.60
2024-01-11T20:34:53.007Z,14.13
2024-01-11T20:37:19.971Z,14.25
2024-01-11T20:39:47.460Z,14.32
2024-01-11T20:42:14.799Z,13.55
2024-01-11T20:44:41.768Z,12.43
2024-01-11T20:47:08.871Z,13.27
2024-01-11T20:49:36.672Z,13.48
2024-01-11T20:52:03.694Z,12.40
2024-01-11T20:54:30.642Z,12.93
2024-01-11T20:56:57.959Z,12.65
2024-01-11T20:59:24.946Z,12.27
2024-01-11T21:01:52.038Z,12.45
2024-01-11T21:04:19.259Z,11.93
2024-01-11T21:06:46.393Z,11.00
2024-01-11T21:09:13.417Z,12.07
2024-01-11T21:11:41.447Z,11.55
2024-01-11T21:14:08.738Z,11.32
2024-01-11T21:16:36.043Z,10.43
2024-01-11T21:19:06.307Z,10.55
2024-01-11T21:21:34.341Z,10.25
2024-01-11T21:24:02.465Z,9.68
2024-01-11T21:26:30.097Z,10.15
2024-01-11T21:28:57.460Z,10.75
2024-01-11T21:31:25.913Z,10.18
2024-01-11T21:33:53.725Z,9.93
2024-01-11T21:36:24.384Z,9.57
2024-01-11T21:38:56.487Z,9.77
2024-01-11T21:41:24.380Z,9.15
2024-01-11T21:43:52.810Z,9.23
2024-01-11T21:46:20.190Z,8.80
2024-01-11T21:48:47.302Z,8.50
2024-01-11T21:51:14.720Z,9.50
2024-01-11T21:53:42.695Z,9.02
2024-01-11T21:56:10.167Z,9.60
2024-01-11T21:58:38.302Z,9.35
2024-01-11T22:01:05.779Z,8.88
2024-01-11T22:03:35.003Z,9.35
2024-01-11T22:06:02.187Z,8.77
2024-01-11T22:08:29.163Z,8.38
2024-01-11T22:10:56.128Z,7.90
2024-01-11T22:13:23.141Z,8.60
2024-01-11T22:15:50.225Z,8.02
2024-01-11T22:18:17.444Z,8.32
2024-01-11T22:20:44.836Z,7.70
2024-01-11T22:23:12.565Z,8.15
2024-01-11T22:25:39.627Z,7.60
2024-01-11T22:28:06.671Z,7.97
2024-01-11T22:30:34.372Z,7.45
2024-01-11T22:33:01.787Z,7.50
2024-01-11T22:35:28.926Z,7.38
2024-01-11T22:37:56.396Z,7.30
2024-01-11T22:40:23.465Z,8.02
2024-01-11T22:42:50.285Z,7.45
2024-01-11T22:45:17.107Z,7.82
2024-01-11T22:47:44.168Z,7.78
2024-01-11T22:50:11.148Z,8.07
2024-01-11T22:52:38.035Z,7.75
2024-01-11T22:55:05.867Z,7.80
2024-01-11T22:57:34.531Z,8.00
2024-01-11T23:00:01.478Z,7.63
2024-01-11T23:02:28.351Z,8.05
2024-01-11T23:04:56.813Z,7.93
2024-01-11T23:07:23.706Z,7.75
2024-01-11T23:09:51.723Z,8.20
2024-01-11T23:12:18.618Z,7.78
2024-01-11T23:14:45.538Z,7.22
2024-01-11T23:17:12.476Z,7.78
2024-01-11T23:19:39.465Z,8.77
2024-01-11T23:22:06.357Z,9.93
2024-01-11T23:24:33.156Z,14.38
2024-01-11T23:27:00.082Z,14.18
2024-01-11T23:29:26.981Z,18.15
2024-01-11T23:31:53.842Z,18.83
2024-01-11T23:34:20.675Z,18.40
2024-01-11T23:36:47.595Z,18.13
2024-01-11T23:39:14.556Z,18.15
2024-01-11T23:41:42.670Z,17.98
2024-01-11T23:44:09.682Z,17.65
2024-01-11T23:46:36.530Z,15.27
2024-01-11T23:49:04.250Z,16.00
2024-01-11T23:51:31.667Z,14.82
2024-01-11T23:53:58.582Z,14.52
2024-01-11T23:56:25.509Z,14.25
2024-01-11T23:58:52.317Z,13.98
